Tucson, Arizona
Current Conditions -  °F | °C
As of 10:58 AM on Thursday 30 Oct 2014 (Local Time) from KDMA Reporting Station
Clear Clear  
Wind Chill: 83°   Ceiling: Unl
Heat Index: 83°   Visibility: 10mi
Dew Point: 40°   Wind: 5mph
Humidity: 21%   Direction: 60°ENE
Pressure: 30.07"   Gusts: NA
Location:  32.22°N, 110.96°W
Report Text: KDMA 301758Z AUTO 06004KT 10SM CLR 28/04 A3007 RMK AO2 SLP146 T02840043 10285 20146 58005 $
Loading
Personal Weather Stations






























Interactive Weather Map New forecast layout! Learn more

10-Day Weather Forecast

Advertisements
Track Severe Weather on mobile